• Join FlightAware (Why Join?)
  • Login
  • US Flag 
01:59PM EDT


 

Airport Tracker/Info


-or-


 

Live Flight TrackerFlight Track Log ✈ EJA922 ✈ 21-Jan-2014 ✈ KBOI - KSWF

Flight Track Log - Related Links

Times and Time Zones

All times are in EST time to prevent confusion due to time zone crossing. See the EJA922 flight status page for this flight to view local times or setup timezone preferences in your user account.

Time Position Orientation Groundspeed Altitude Reporting Facility
EST Latitude Longitude Course Direction KTS MPH feet Rate Location/Type
05:51PM 43.5514 -116.1939 143° Southeast 179 206 4,200  Level Salt Lake Center
05:51PM 43.5322 -116.1739 143° Southeast 191 220 5,600 3,360 Climbing Salt Lake Center
05:52PM 43.4900 -116.0997 128° Southeast 260 299 9,100 2,580 Climbing Salt Lake Center
05:53PM 43.5064 -115.9875 79° East 289 333 10,900 1,560 Climbing Salt Lake Center
05:54PM 43.5281 -115.8606 77° East 349 402 12,400 1,920 Climbing Salt Lake Center
05:55PM 43.5536 -115.7122 77° East 374 430 14,900 2,100 Climbing Salt Lake Center
05:56PM 43.5797 -115.5603 77° East 387 445 16,800 1,560 Climbing Salt Lake Center
05:57PM 43.6064 -115.4019 77° East 406 467 18,200 1,560 Climbing Salt Lake Center
05:58PM 43.6314 -115.2489 77° East 421 484 20,000 1,560 Climbing Salt Lake Center
05:59PM 43.6578 -115.0892 77° East 432 497 21,500 1,560 Climbing Salt Lake Center
06:00PM 43.6861 -114.9200 77° East 451 519 23,300 1,680 Climbing Salt Lake Center
06:01PM 43.7136 -114.7494 77° East 457 526 25,000 1,800 Climbing Salt Lake Center
06:03PM 43.7483 -114.5372 77° East 473 544 27,000 1,800 Climbing Salt Lake Center
06:04PM 43.7769 -114.3558 78° East 486 559 28,700 1,500 Climbing Salt Lake Center
06:05PM 43.8053 -114.1708 78° East 497 572 30,100 1,500 Climbing Salt Lake Center
06:06PM 43.8344 -113.9833 78° East 501 577 31,900 1,920 Climbing Salt Lake Center
06:07PM 43.8669 -113.7697 78° East 503 579 34,100 2,040 Climbing Salt Lake Center
06:08PM 43.8928 -113.5900 79° East 498 573 36,100 1,800 Climbing Salt Lake Center
06:09PM 43.9178 -113.4136 79° East 490 564 37,900 1,560 Climbing Salt Lake Center
06:10PM 43.9472 -113.2097 79° East 484 557 39,300 1,080 Climbing Salt Lake Center
06:11PM 43.9717 -113.0344 79° East 484 557 40,200 660 Climbing Salt Lake Center
06:12PM 44.0022 -112.8242 79° East 497 572 40,700 360 Climbing Salt Lake Center
06:13PM 44.0281 -112.6397 79° East 507 583 41,000 120 Climbing Salt Lake Center
06:14PM 44.0569 -112.4525 78° East 518 596 41,000  Level Salt Lake Center
06:15PM 44.0858 -112.2214 80° East 540 621 41,000  Level Salt Lake Center
06:16PM 44.0908 -112.0164 88° East 551 634 41,000  Level Salt Lake Center
06:17PM 44.0928 -111.7717 89° East 568 654 41,000  Level Salt Lake Center
06:18PM 44.0931 -111.5594 90° East 577 664 41,000  Level Salt Lake Center
06:19PM 44.0944 -111.3125 89° East 577 664 41,000  Level Salt Lake Center
06:20PM 44.0942 -111.1022 90° East 575 662 41,000  Level Salt Lake Center
06:21PM 44.0933 -110.8558 90° East 575 662 41,000  Level Salt Lake Center
06:22PM 44.0919 -110.6436 90° East 576 663 41,000  Level Salt Lake Center
06:23PM 44.0928 -110.4317 90° East 575 662 41,000  Level Salt Lake Center
06:24PM 44.0906 -110.1850 91° East 574 661 41,000  Level Salt Lake Center
06:25PM 44.0881 -109.9722 91° East 577 664 41,000  Level Salt Lake Center
06:26PM 44.0844 -109.7297 91° East 566 651 41,000  Level Salt Lake Center
06:27PM 44.0833 -109.5169 90° East 572 658 41,000  Level Salt Lake Center
06:28PM 44.0792 -109.3111 92° East 569 655 41,000  Level Salt Lake Center
06:29PM 44.0758 -109.0481 91° East 571 657 41,000  Level Salt Lake Center
06:30PM 44.0714 -108.8261 92° East 575 662 41,000  Level Salt Lake Center
06:31PM 44.0669 -108.6047 92° East 577 664 41,000  Level Salt Lake Center
06:32PM 44.0603 -108.3797 92° East 583 671 41,000  Level Salt Lake Center
06:33PM 44.0547 -108.1583 92° East 581 669 41,000  Level Salt Lake Center
06:34PM 44.0492 -107.9383 92° East 577 664 41,000  Level Salt Lake Center
06:35PM 44.0408 -107.6717 92° East 581 669 41,000  Level Salt Lake Center
06:36PM 44.0353 -107.4494 92° East 581 669 41,000  Level Salt Lake Center
06:37PM 44.0278 -107.2264 93° East 583 671 41,000  Level Salt Lake Center
06:38PM 44.0200 -107.0056 93° East 578 665 41,000  Level Salt Lake Center
06:39PM 44.0117 -106.7831 93° East 581 669 41,000  Level Salt Lake Center
06:40PM 44.0036 -106.5614 93° East 579 666 41,000  Level Salt Lake Center
06:41PM 43.9992 -106.3394 92° East 578 665 41,000  Level Salt Lake Center
06:43PM 44.0022 -106.0936 89° East 579 666 41,000  Level Salt Lake Center
06:44PM 44.0033 -105.8786 90° East 581 669 41,000  Level Salt Lake Center
06:45PM 44.0033 -105.5589 90° East 578 665 41,000  Level Denver Center
06:46PM 44.0028 -105.3456 90° East 578 665 41,000  Level Denver Center
06:47PM 44.0025 -105.0964 90° East 577 664 41,000  Level Denver Center
06:48PM 44.0008 -104.8814 91° East 578 665 41,000  Level Denver Center
06:49PM 43.9997 -104.6658 90° East 581 669 41,000  Level Denver Center
06:50PM 43.9978 -104.4133 91° East 584 672 41,000  Level Denver Center
06:51PM 43.9947 -104.1983 91° East 582 670 41,000  Level Denver Center
06:52PM 43.9925 -103.9464 91° East 582 670 41,000  Level Denver Center
06:53PM 43.9889 -103.7308 91° East 583 671 41,000  Level Denver Center
06:54PM 43.9850 -103.4819 91° East 577 664 41,000  Level Denver Center
06:55PM 43.9814 -103.2708 91° East 574 661 41,000  Level Denver Center
06:56PM 43.9778 -103.0569 91° East 576 663 41,000  Level Denver Center
06:57PM 43.9703 -102.8019 92° East 581 669 41,000  Level Denver Center
06:58PM 43.9631 -102.5761 92° East 585 673 41,000  Level Denver Center
06:59PM 43.9558 -102.3522 92° East 584 672 41,000  Level Denver Center
07:00PM 43.9475 -102.1269 93° East 586 674 41,000  Level Denver Center
07:01PM 43.9394 -101.9031 93° East 585 673 41,000  Level Denver Center
07:02PM 43.9342 -101.6825 92° East 580 667 41,000  Level Denver Center
07:03PM 43.9239 -101.4156 93° East 580 667 41,000  Level Denver Center
07:04PM 43.9147 -101.1933 93° East 580 667 41,000  Level Denver Center
07:05PM 43.9058 -100.9725 93° East 577 664 41,000  Level Denver Center
07:06PM 43.8964 -100.7525 93° East 576 663 41,000  Level Denver Center
07:08PM 43.8869 -100.5353 93° East 571 657 41,000  Level Denver Center
07:09PM 43.8764 -100.3192 94° East 567 652 41,000  Level Denver Center
07:10PM 43.8633 -100.0600 94° East 568 654 41,000  Level Minneapolis Center
07:11PM 43.8522 -99.8436 94° East 567 652 41,000  Level Minneapolis Center
07:12PM 43.8403 -99.6258 94° East 569 655 41,000  Level Minneapolis Center
07:13PM 43.8292 -99.4064 94° East 573 659 41,000  Level Minneapolis Center
07:14PM 43.8158 -99.1889 95° East 571 657 41,000  Level Minneapolis Center
07:15PM 43.8008 -98.9267 94° East 573 659 41,000  Level Minneapolis Center
07:16PM 43.7875 -98.7092 95° East 572 658 41,000  Level Minneapolis Center
07:17PM 43.7722 -98.4756 95° East 574 661 41,000  Level Minneapolis Center
07:18PM 43.7572 -98.2569 95° East 574 661 41,000  Level Minneapolis Center
07:19PM 43.7436 -98.0383 95° East 574 661 41,000  Level Minneapolis Center
07:20PM 43.7275 -97.8197 96° East 574 661 41,000  Level Minneapolis Center
07:21PM 43.7125 -97.6000 95° East 576 663 41,000  Level Minneapolis Center
07:22PM 43.6961 -97.3819 96° East 575 662 41,000  Level Minneapolis Center
07:23PM 43.6794 -97.1633 96° East 576 663 41,000  Level Minneapolis Center
07:24PM 43.6586 -96.8994 96° East 579 666 41,000  Level Minneapolis Center
07:25PM 43.6358 -96.6806 98° East 581 669 41,000  Level Minneapolis Center
07:26PM 43.6033 -96.4639 102° East 581 669 41,000  Level Minneapolis Center
07:27PM 43.5725 -96.2469 101° East 583 671 41,000  Level Minneapolis Center
07:28PM 43.5386 -96.0308 102° East 585 673 41,000  Level Minneapolis Center
07:29PM 43.5056 -95.8142 102° East 583 671 41,000  Level Minneapolis Center
07:30PM 43.4661 -95.5542 102° East 583 671 41,000  Level Minneapolis Center
07:31PM 43.4317 -95.3372 102° East 584 672 41,000  Level Minneapolis Center
07:32PM 43.3964 -95.1219 103° East 583 671 41,000  Level Minneapolis Center
07:33PM 43.3619 -94.9033 102° East 586 674 41,000  Level Minneapolis Center
07:34PM 43.3264 -94.6858 103° East 586 674 41,000  Level Minneapolis Center
07:35PM 43.2900 -94.4681 103° East 588 677 41,000  Level Minneapolis Center
07:36PM 43.2519 -94.2419 103° East 588 677 41,000  Level Minneapolis Center
07:37PM 43.2183 -94.0211 102° East 592 681 41,000  Level Minneapolis Center
07:38PM 43.1778 -93.8069 104° East 584 672 41,000  Level Minneapolis Center
07:39PM 43.1414 -93.5897 103° East 586 674 41,000  Level Minneapolis Center
07:40PM 43.0967 -93.3294 103° East 587 676 41,000  Level Minneapolis Center
07:41PM 43.0794 -93.1094 96° East 585 673 41,000  Level Minneapolis Center
07:42PM 43.0653 -92.8886 95° East 585 673 41,000  Level Minneapolis Center
07:43PM 43.0494 -92.6708 96° East 580 667 41,000  Level Minneapolis Center
07:44PM 43.0353 -92.4969 96° East 584 672 41,000  Level Chicago Center
07:45PM 43.0186 -92.2781 96° East 582 670 41,000  Level Chicago Center
07:46PM 43.0022 -92.0608 96° East 579 666 41,000  Level Chicago Center
07:47PM 42.9864 -91.8433 96° East 576 663 41,000  Level Chicago Center
07:48PM 42.9697 -91.6247 96° East 573 659 41,000  Level Chicago Center
07:49PM 42.9531 -91.4069 96° East 569 655 41,000  Level Chicago Center
07:50PM 42.9364 -91.1906 96° East 569 655 41,000  Level Chicago Center
07:51PM 42.9186 -90.9758 96° East 568 654 41,000  Level Chicago Center
07:52PM 42.8967 -90.7633 98° East 566 651 41,000  Level Chicago Center
07:53PM 42.8631 -90.5506 102° East 573 659 41,000  Level Chicago Center
07:54PM 42.8275 -90.2967 101° East 571 657 41,000  Level Chicago Center
07:55PM 42.7975 -90.0858 101° East 571 657 41,000  Level Chicago Center
07:56PM 42.7686 -89.8825 101° East 570 656 41,000  Level Chicago Center
07:58PM 42.7375 -89.6728 101° East 569 655 41,000  Level Chicago Center
07:59PM 42.7064 -89.4625 101° East 570 656 41,000  Level Chicago Center
08:00PM 42.6692 -89.2108 101° East 570 656 41,000  Level Chicago Center
08:01PM 42.6375 -89.0025 102° East 569 655 41,000  Level Chicago Center
08:02PM 42.6053 -88.7947 102° East 567 652 41,000  Level Chicago Center
08:03PM 42.5731 -88.5872 102° East 566 651 41,000  Level Chicago Center
08:04PM 42.5400 -88.3769 102° East 573 659 41,000  Level Chicago Center
08:05PM 42.5067 -88.1681 102° East 572 658 41,000  Level Chicago Center
08:06PM 42.4733 -87.9589 102° East 571 657 41,000  Level Chicago Center
08:07PM 42.4325 -87.7100 102° East 569 655 41,000  Level Chicago Center
08:08PM 42.3969 -87.5028 103° East 568 654 41,000  Level Chicago Center
08:09PM 42.3594 -87.2881 103° East 570 656 41,000  Level Chicago Center
08:10PM 42.3253 -87.0800 102° East 570 656 41,000  Level Chicago Center
08:11PM 42.2872 -86.8628 103° East 571 657 41,000  Level Chicago Center
08:12PM 42.2503 -86.6556 103° East 569 655 41,000  Level Chicago Center
08:13PM 42.2139 -86.4489 103° East 568 654 41,000  Level Chicago Center
08:14PM 42.1758 -86.2406 104° East 571 657 41,000  Level Chicago Center
08:15PM 42.1378 -86.0342 104° East 568 654 41,000  Level Chicago Center
08:16PM 42.0958 -85.8031 104° East 569 655 41,000  Level Chicago Center
08:17PM 42.0569 -85.5964 104° East 572 658 41,000  Level Chicago Center
08:18PM 42.0186 -85.3919 104° East 570 656 41,000  Level Chicago Center
08:19PM 41.9747 -85.1600 104° East 569 655 41,000  Level Chicago Center
08:20PM 41.9347 -84.9519 104° East 571 657 41,000  Level Chicago Center
08:21PM 41.8944 -84.7444 105° East 571 657 41,000  Level Chicago Center
08:22PM 41.8542 -84.5375 105° East 571 657 41,000  Level Chicago Center
08:23PM 41.8131 -84.3317 105° East 572 658 41,000  Level Chicago Center
08:24PM 41.7731 -84.1258 105° East 571 657 41,000  Level Chicago Center
08:25PM 41.7308 -83.9219 105° East 570 656 41,000  Level Chicago Center
08:27PM 41.6769 -83.6194 103° East 570 656 41,000  Level Cleveland Center
08:28PM 41.6672 -83.4117 94° East 565 650 41,000  Level Cleveland Center
08:29PM 41.6967 -83.2092 79° East 563 648 41,000  Level Cleveland Center
08:30PM 41.7258 -83.0072 79° East 562 647 41,000  Level Cleveland Center
08:31PM 41.7553 -82.8053 79° East 560 644 41,000  Level Cleveland Center
08:32PM 41.7839 -82.6031 79° East 560 644 41,000  Level Cleveland Center
08:33PM 41.8192 -82.3592 79° East 560 644 41,000  Level Cleveland Center
08:34PM 41.8472 -82.1558 79° East 559 643 41,000  Level Cleveland Center
08:35PM 41.8728 -81.9631 80° East 559 643 41,000  Level Cleveland Center
08:36PM 41.9014 -81.7553 79° East 559 643 41,000  Level Cleveland Center
08:37PM 41.9297 -81.5469 80° East 558 642 41,000  Level Cleveland Center
08:38PM 41.9572 -81.3386 80° East 559 643 41,000  Level Cleveland Center
08:39PM 41.9850 -81.1308 80° East 559 643 41,000  Level Cleveland Center
08:40PM 42.0125 -80.9219 80° East 559 643 41,000  Level Cleveland Center
08:41PM 42.0386 -80.7128 80° East 559 643 41,000  Level Cleveland Center
08:42PM 42.0664 -80.5047 80° East 560 644 41,000  Level Cleveland Center
08:43PM 42.0919 -80.2961 81° East 560 644 41,000  Level Cleveland Center
08:44PM 42.1181 -80.0847 80° East 564 649 41,000  Level Cleveland Center
08:45PM 42.1433 -79.8697 81° East 569 655 41,000  Level Cleveland Center
08:46PM 42.1686 -79.6606 81° East 568 654 41,000  Level Cleveland Center
08:47PM 42.1925 -79.4517 81° East 567 652 41,000  Level Cleveland Center
08:48PM 42.2158 -79.2439 81° East 566 651 41,000  Level Cleveland Center
08:49PM 42.2422 -78.9931 82° East 564 649 41,000  Level Cleveland Center
08:50PM 42.2647 -78.7858 82° East 565 650 41,000  Level Cleveland Center
08:51PM 42.2881 -78.5764 81° East 567 652 41,000 -1,020 Level Cleveland Center
08:52PM 42.3100 -78.3678 82° East 566 651 39,000 -2,280 Descending Cleveland Center
08:53PM 42.3317 -78.1644 82° East 557 641 36,400 -2,640 Descending Cleveland Center
08:54PM 42.3533 -77.9622 82° East 553 636 33,700 -2,640 Descending Cleveland Center
08:55PM 42.3739 -77.7628 82° East 548 631 31,100 -2,580 Descending Cleveland Center
08:56PM 42.3917 -77.5692 83° East 536 617 28,600 -1,560 Descending Cleveland Center
08:57PM 42.4144 -77.3464 82° East 511 588 28,000 -540 Descending Cleveland Center
08:58PM 42.4314 -77.1553 83° East 513 590 27,600 -540 Descending Cleveland Center
08:59PM 42.4492 -76.9678 83° East 511 588 27,000 -360 Descending Cleveland Center
09:00PM 42.4631 -76.8175 83° East 507 583 27,000  Level Boston Center
09:01PM 42.4803 -76.6269 83° East 510 587 27,000  Level Boston Center
09:02PM 42.4808 -76.4008 90° East 514 592 27,000  Level Boston Center
09:03PM 42.4489 -76.2336 104° East 495 570 27,000  Level Boston Center
09:04PM 42.4153 -76.0700 105° East 500 575 27,000  Level Boston Center
09:05PM 42.3686 -75.8494 106° East 510 587 27,000 -1,020 Level Boston Center
09:06PM 42.3314 -75.6697 106° East 503 579 25,000 -2,520 Descending Boston Center
09:07PM 42.2972 -75.5114 106° East 483 556 21,900 -3,120 Descending Boston Center
09:08PM 42.2636 -75.3492 106° East 454 522 18,700 -3,000 Descending Boston Center
09:09PM 42.2303 -75.1944 106° East 435 501 15,800 -3,000 Descending Boston Center
09:10PM 42.1947 -75.0294 106° East 436 502 12,700 -2,340 Descending Boston Center
09:11PM 42.1533 -74.8928 112° Southeast 407 468 11,200 -780 Descending Boston Center
09:12PM 42.1003 -74.7686 120° Southeast 385 443 11,200 -600 Level Boston Center
09:13PM 42.0433 -74.6356 120° Southeast 382 440 10,100 -1,140 Descending Boston Center
09:14PM 42.0025 -74.5381 119° Southeast 301 346 8,900 -1,260 Descending Boston Center
09:15PM 41.9517 -74.4569 130° Southeast 293 337 7,600 -960 Descending Boston Center
09:16PM 41.8775 -74.4286 164° South 277 319 7,000 -300 Descending Boston Center
09:17PM 41.8036 -74.4019 165° South 276 318 7,000 -660 Level Boston Center
09:19PM 41.6667 -74.3667 169° South 262 302 5,200 -1,140 Descending New York TRACON
09:20PM 41.6000 -74.3833 191° South 264 304 4,000 -600 Descending New York TRACON
09:21PM 41.5333 -74.4000 191° South 230 265 4,000 -240 Level New York TRACON
09:22PM 41.4833 -74.3833 166° South 223 257 3,500 -540 Descending New York TRACON
09:23PM 41.4667 -74.3167 108° East 190 219 3,000 -420 Descending New York TRACON
09:24PM 41.4833 -74.2500 72° East 177 204 2,800 -540 Descending New York TRACON
09:25PM 41.4833 -74.2000 90° East 117 135 2,000 -840 Descending New York TRACON
09:26PM 41.5000 -74.1667 56° Northeast 116 133 1,200 -840 Descending New York TRACON